LQTZ/TZL METAR and TAF weather

Enter ICAO airport designator
Station Type Date Time Source
LQTZ METAR 2019/08/18 08:30 UTC NOAA

LQTZ 180830Z VRB02KT CAVOK 24/18 Q1017


Station Type Date Time Source
LQTZ Decoded METAR 2019/08/18 08:30 UTC NOAA

Station name not available
Aug 18, 2019 - 04:30 AM EDT / 2019.08.18 0830 UTC
Wind: Variable at 2 MPH (2 KT):0
Visibility: greater than 7 mile(s):0
Temperature: 75 F (24 C)
Dew Point: 64 F (18 C)
Relative Humidity: 69%
Pressure (altimeter): 30.03 in. Hg (1017 hPa)
ob: LQTZ 180830Z VRB02KT CAVOK 24/18 Q1017
cycle: 8

Station Type Date Time Source
LQTZ TAF 2019/08/18 06:08 UTC NOAA

TAF LQTZ 180500Z 1806/1906 VRB02KT CAVOK TX30/1814Z TN12/1904Z

Example: see airport list